sensor_id;sensor_type;location;lat;lon;timestamp;P1;durP1;ratioP1;P2;durP2;ratioP2
76167;SDS011;64927;48.214;16.378;2022-12-15T00:00:43;82.75;;;50.00;;
76167;SDS011;64927;48.214;16.378;2022-12-15T00:03:27;82.65;;;49.67;;
76167;SDS011;64927;48.214;16.378;2022-12-15T00:06:11;79.60;;;47.30;;
76167;SDS011;64927;48.214;16.378;2022-12-15T00:08:55;75.75;;;46.03;;
76167;SDS011;64927;48.214;16.378;2022-12-15T00:11:39;79.03;;;48.88;;
76167;SDS011;64927;48.214;16.378;2022-12-15T00:14:28;77.63;;;45.60;;
76167;SDS011;64927;48.214;16.378;2022-12-15T00:17:12;78.45;;;46.60;;
76167;SDS011;64927;48.214;16.378;2022-12-15T00:19:56;77.40;;;47.75;;
76167;SDS011;64927;48.214;16.378;2022-12-15T00:22:40;77.28;;;46.65;;
76167;SDS011;64927;48.214;16.378;2022-12-15T00:25:25;81.80;;;49.40;;
76167;SDS011;64927;48.214;16.378;2022-12-15T00:28:09;79.88;;;47.72;;
76167;SDS011;64927;48.214;16.378;2022-12-15T00:30:53;78.80;;;48.55;;
76167;SDS011;64927;48.214;16.378;2022-12-15T00:33:37;80.80;;;49.38;;
76167;SDS011;64927;48.214;16.378;2022-12-15T00:36:21;80.55;;;48.25;;
76167;SDS011;64927;48.214;16.378;2022-12-15T00:39:05;83.15;;;49.17;;
76167;SDS011;64927;48.214;16.378;2022-12-15T00:41:33;76.60;;;48.60;;
76167;SDS011;64927;48.214;16.378;2022-12-15T00:43:58;86.15;;;50.03;;
76167;SDS011;64927;48.214;16.378;2022-12-15T00:46:24;75.53;;;47.22;;
76167;SDS011;64927;48.214;16.378;2022-12-15T00:49:08;85.70;;;49.72;;
76167;SDS011;64927;48.214;16.378;2022-12-15T00:51:54;77.90;;;47.75;;
76167;SDS011;64927;48.214;16.378;2022-12-15T00:54:38;77.60;;;46.60;;
76167;SDS011;64927;48.214;16.378;2022-12-15T00:57:22;78.93;;;46.55;;
76167;SDS011;64927;48.214;16.378;2022-12-15T01:00:06;82.68;;;49.42;;
76167;SDS011;64927;48.214;16.378;2022-12-15T01:02:51;82.15;;;46.78;;
76167;SDS011;64927;48.214;16.378;2022-12-15T01:05:35;74.38;;;46.42;;
76167;SDS011;64927;48.214;16.378;2022-12-15T01:08:19;75.13;;;47.05;;
76167;SDS011;64927;48.214;16.378;2022-12-15T01:11:03;78.10;;;46.22;;
76167;SDS011;64927;48.214;16.378;2022-12-15T01:13:47;82.53;;;47.15;;
76167;SDS011;64927;48.214;16.378;2022-12-15T01:16:31;77.88;;;48.25;;
76167;SDS011;64927;48.214;16.378;2022-12-15T01:19:15;78.50;;;48.70;;
76167;SDS011;64927;48.214;16.378;2022-12-15T01:21:59;82.10;;;47.55;;
76167;SDS011;64927;48.214;16.378;2022-12-15T01:24:27;81.72;;;48.80;;
76167;SDS011;64927;48.214;16.378;2022-12-15T01:26:53;78.85;;;48.05;;
76167;SDS011;64927;48.214;16.378;2022-12-15T01:29:18;78.65;;;47.60;;
76167;SDS011;64927;48.214;16.378;2022-12-15T01:31:44;81.13;;;49.35;;
76167;SDS011;64927;48.214;16.378;2022-12-15T01:34:10;75.32;;;47.20;;
76167;SDS011;64927;48.214;16.378;2022-12-15T01:36:35;78.10;;;47.25;;
76167;SDS011;64927;48.214;16.378;2022-12-15T01:39:01;82.35;;;49.55;;
76167;SDS011;64927;48.214;16.378;2022-12-15T01:41:27;82.68;;;48.72;;
76167;SDS011;64927;48.214;16.378;2022-12-15T01:43:53;76.20;;;47.17;;
76167;SDS011;64927;48.214;16.378;2022-12-15T01:46:20;75.00;;;46.75;;
76167;SDS011;64927;48.214;16.378;2022-12-15T01:48:56;79.07;;;48.28;;
76167;SDS011;64927;48.214;16.378;2022-12-15T01:51:38;77.75;;;46.17;;
76167;SDS011;64927;48.214;16.378;2022-12-15T01:54:14;78.90;;;47.55;;
76167;SDS011;64927;48.214;16.378;2022-12-15T01:56:49;80.18;;;46.33;;
76167;SDS011;64927;48.214;16.378;2022-12-15T01:59:20;77.15;;;44.78;;
76167;SDS011;64927;48.214;16.378;2022-12-15T02:01:48;76.72;;;45.80;;
76167;SDS011;64927;48.214;16.378;2022-12-15T02:04:15;80.90;;;46.53;;
76167;SDS011;64927;48.214;16.378;2022-12-15T02:06:43;74.70;;;45.40;;
76167;SDS011;64927;48.214;16.378;2022-12-15T02:09:09;82.88;;;49.28;;
76167;SDS011;64927;48.214;16.378;2022-12-15T02:11:41;79.63;;;48.17;;
76167;SDS011;64927;48.214;16.378;2022-12-15T02:14:23;77.75;;;46.00;;
76167;SDS011;64927;48.214;16.378;2022-12-15T02:16:59;80.20;;;47.67;;
76167;SDS011;64927;48.214;16.378;2022-12-15T02:25:22;76.82;;;46.90;;
76167;SDS011;64927;48.214;16.378;2022-12-15T02:31:05;85.63;;;48.75;;
76167;SDS011;64927;48.214;16.378;2022-12-15T02:34:04;76.25;;;46.50;;
76167;SDS011;64927;48.214;16.378;2022-12-15T02:36:41;76.07;;;46.55;;
76167;SDS011;64927;48.214;16.378;2022-12-15T02:39:11;75.72;;;45.20;;
76167;SDS011;64927;48.214;16.378;2022-12-15T02:41:41;72.35;;;44.65;;
76167;SDS011;64927;48.214;16.378;2022-12-15T02:47:10;73.40;;;44.38;;
76167;SDS011;64927;48.214;16.378;2022-12-15T02:53:05;73.97;;;46.15;;
76167;SDS011;64927;48.214;16.378;2022-12-15T02:58:38;72.05;;;44.25;;
76167;SDS011;64927;48.214;16.378;2022-12-15T03:01:28;69.63;;;43.75;;
76167;SDS011;64927;48.214;16.378;2022-12-15T03:04:01;66.13;;;42.53;;
76167;SDS011;64927;48.214;16.378;2022-12-15T03:06:29;73.65;;;45.15;;
76167;SDS011;64927;48.214;16.378;2022-12-15T03:08:55;73.68;;;45.80;;
76167;SDS011;64927;48.214;16.378;2022-12-15T03:11:21;77.70;;;45.40;;
76167;SDS011;64927;48.214;16.378;2022-12-15T03:13:49;74.68;;;45.90;;
76167;SDS011;64927;48.214;16.378;2022-12-15T03:16:15;64.72;;;42.15;;
76167;SDS011;64927;48.214;16.378;2022-12-15T03:18:41;71.45;;;44.60;;
76167;SDS011;64927;48.214;16.378;2022-12-15T03:21:09;76.38;;;44.53;;
76167;SDS011;64927;48.214;16.378;2022-12-15T03:23:35;76.13;;;43.72;;
76167;SDS011;64927;48.214;16.378;2022-12-15T03:26:00;74.07;;;44.17;;
76167;SDS011;64927;48.214;16.378;2022-12-15T03:28:26;66.13;;;42.80;;
76167;SDS011;64927;48.214;16.378;2022-12-15T03:30:52;73.60;;;44.20;;
76167;SDS011;64927;48.214;16.378;2022-12-15T03:33:20;73.50;;;44.65;;
76167;SDS011;64927;48.214;16.378;2022-12-15T03:35:49;73.65;;;44.72;;
76167;SDS011;64927;48.214;16.378;2022-12-15T03:38:15;68.60;;;43.30;;
76167;SDS011;64927;48.214;16.378;2022-12-15T03:40:41;71.55;;;44.25;;
76167;SDS011;64927;48.214;16.378;2022-12-15T03:43:06;71.40;;;43.88;;
76167;SDS011;64927;48.214;16.378;2022-12-15T03:45:32;72.35;;;44.78;;
76167;SDS011;64927;48.214;16.378;2022-12-15T03:48:00;69.53;;;43.13;;
76167;SDS011;64927;48.214;16.378;2022-12-15T03:50:27;72.72;;;44.60;;
76167;SDS011;64927;48.214;16.378;2022-12-15T03:53:00;74.28;;;43.70;;
76167;SDS011;64927;48.214;16.378;2022-12-15T03:55:28;69.45;;;42.78;;
76167;SDS011;64927;48.214;16.378;2022-12-15T03:57:53;75.45;;;44.65;;
76167;SDS011;64927;48.214;16.378;2022-12-15T04:00:23;75.68;;;44.55;;
76167;SDS011;64927;48.214;16.378;2022-12-15T04:02:49;67.47;;;44.05;;
76167;SDS011;64927;48.214;16.378;2022-12-15T04:08:07;73.03;;;44.15;;
76167;SDS011;64927;48.214;16.378;2022-12-15T04:10:33;73.10;;;45.15;;
76167;SDS011;64927;48.214;16.378;2022-12-15T04:13:03;71.82;;;44.92;;
76167;SDS011;64927;48.214;16.378;2022-12-15T04:15:30;74.80;;;45.47;;
76167;SDS011;64927;48.214;16.378;2022-12-15T04:17:56;78.72;;;47.42;;
76167;SDS011;64927;48.214;16.378;2022-12-15T04:20:22;77.03;;;45.75;;
76167;SDS011;64927;48.214;16.378;2022-12-15T04:22:49;79.13;;;47.42;;
76167;SDS011;64927;48.214;16.378;2022-12-15T04:25:19;76.38;;;46.83;;
76167;SDS011;64927;48.214;16.378;2022-12-15T04:28:05;74.53;;;44.50;;
76167;SDS011;64927;48.214;16.378;2022-12-15T04:30:51;74.70;;;47.42;;
76167;SDS011;64927;48.214;16.378;2022-12-15T04:33:38;77.75;;;46.15;;
76167;SDS011;64927;48.214;16.378;2022-12-15T04:36:26;79.75;;;48.58;;
76167;SDS011;64927;48.214;16.378;2022-12-15T04:39:11;76.13;;;46.92;;
76167;SDS011;64927;48.214;16.378;2022-12-15T04:41:56;78.72;;;48.20;;
76167;SDS011;64927;48.214;16.378;2022-12-15T04:44:43;76.65;;;47.53;;
76167;SDS011;64927;48.214;16.378;2022-12-15T04:47:28;79.13;;;48.95;;
76167;SDS011;64927;48.214;16.378;2022-12-15T04:50:12;84.63;;;52.75;;
76167;SDS011;64927;48.214;16.378;2022-12-15T04:53:05;85.63;;;51.90;;
76167;SDS011;64927;48.214;16.378;2022-12-15T04:55:54;90.60;;;55.03;;
76167;SDS011;64927;48.214;16.378;2022-12-15T04:58:38;96.25;;;57.92;;
76167;SDS011;64927;48.214;16.378;2022-12-15T05:01:22;97.25;;;55.88;;
76167;SDS011;64927;48.214;16.378;2022-12-15T05:04:06;99.20;;;58.63;;
76167;SDS011;64927;48.214;16.378;2022-12-15T05:06:50;92.45;;;54.38;;
76167;SDS011;64927;48.214;16.378;2022-12-15T05:09:34;102.65;;;58.72;;
76167;SDS011;64927;48.214;16.378;2022-12-15T05:12:18;93.70;;;54.22;;
76167;SDS011;64927;48.214;16.378;2022-12-15T05:15:02;99.43;;;58.03;;
76167;SDS011;64927;48.214;16.378;2022-12-15T05:17:47;99.20;;;55.20;;
76167;SDS011;64927;48.214;16.378;2022-12-15T05:20:31;94.93;;;54.85;;
76167;SDS011;64927;48.214;16.378;2022-12-15T05:23:15;105.53;;;58.80;;
76167;SDS011;64927;48.214;16.378;2022-12-15T05:26:00;106.07;;;59.13;;
76167;SDS011;64927;48.214;16.378;2022-12-15T05:28:46;109.50;;;59.50;;
76167;SDS011;64927;48.214;16.378;2022-12-15T05:31:30;108.20;;;61.03;;
76167;SDS011;64927;48.214;16.378;2022-12-15T05:34:14;101.32;;;59.60;;
76167;SDS011;64927;48.214;16.378;2022-12-15T05:36:40;100.47;;;58.10;;
76167;SDS011;64927;48.214;16.378;2022-12-15T05:39:06;106.50;;;59.30;;
76167;SDS011;64927;48.214;16.378;2022-12-15T05:41:32;112.15;;;61.17;;
76167;SDS011;64927;48.214;16.378;2022-12-15T05:43:57;105.75;;;58.60;;
76167;SDS011;64927;48.214;16.378;2022-12-15T05:46:23;109.25;;;60.03;;
76167;SDS011;64927;48.214;16.378;2022-12-15T05:48:49;111.93;;;61.33;;
76167;SDS011;64927;48.214;16.378;2022-12-15T05:51:14;111.88;;;61.83;;
76167;SDS011;64927;48.214;16.378;2022-12-15T05:53:42;108.43;;;59.40;;
76167;SDS011;64927;48.214;16.378;2022-12-15T05:56:12;110.55;;;62.03;;
76167;SDS011;64927;48.214;16.378;2022-12-15T05:58:39;111.90;;;59.03;;
76167;SDS011;64927;48.214;16.378;2022-12-15T06:01:09;106.68;;;59.35;;
76167;SDS011;64927;48.214;16.378;2022-12-15T06:03:37;107.85;;;61.85;;
76167;SDS011;64927;48.214;16.378;2022-12-15T06:06:03;103.72;;;59.20;;
76167;SDS011;64927;48.214;16.378;2022-12-15T06:08:33;100.57;;;55.55;;
76167;SDS011;64927;48.214;16.378;2022-12-15T06:11:02;95.43;;;52.92;;
76167;SDS011;64927;48.214;16.378;2022-12-15T06:13:29;101.75;;;56.47;;
76167;SDS011;64927;48.214;16.378;2022-12-15T06:16:00;102.22;;;57.17;;
76167;SDS011;64927;48.214;16.378;2022-12-15T06:18:29;107.10;;;59.50;;
76167;SDS011;64927;48.214;16.378;2022-12-15T06:20:58;112.45;;;60.55;;
76167;SDS011;64927;48.214;16.378;2022-12-15T06:23:24;114.75;;;61.88;;
76167;SDS011;64927;48.214;16.378;2022-12-15T06:25:52;120.53;;;62.15;;
76167;SDS011;64927;48.214;16.378;2022-12-15T06:28:18;126.20;;;66.15;;
76167;SDS011;64927;48.214;16.378;2022-12-15T06:30:48;116.60;;;60.63;;
76167;SDS011;64927;48.214;16.378;2022-12-15T06:33:16;119.75;;;64.00;;
76167;SDS011;64927;48.214;16.378;2022-12-15T06:35:41;139.73;;;75.03;;
76167;SDS011;64927;48.214;16.378;2022-12-15T06:38:09;118.97;;;63.15;;
76167;SDS011;64927;48.214;16.378;2022-12-15T06:40:35;99.05;;;56.72;;
76167;SDS011;64927;48.214;16.378;2022-12-15T06:43:03;107.57;;;57.53;;
76167;SDS011;64927;48.214;16.378;2022-12-15T06:45:29;107.63;;;57.72;;
76167;SDS011;64927;48.214;16.378;2022-12-15T06:47:54;101.57;;;57.08;;
76167;SDS011;64927;48.214;16.378;2022-12-15T06:50:20;96.30;;;56.40;;
76167;SDS011;64927;48.214;16.378;2022-12-15T06:52:45;103.78;;;56.38;;
76167;SDS011;64927;48.214;16.378;2022-12-15T06:55:11;112.70;;;58.40;;
76167;SDS011;64927;48.214;16.378;2022-12-15T06:57:38;108.00;;;61.90;;
76167;SDS011;64927;48.214;16.378;2022-12-15T07:00:04;109.82;;;58.95;;
76167;SDS011;64927;48.214;16.378;2022-12-15T07:02:30;107.72;;;59.15;;
76167;SDS011;64927;48.214;16.378;2022-12-15T07:04:57;113.90;;;60.22;;
76167;SDS011;64927;48.214;16.378;2022-12-15T07:07:23;102.30;;;59.35;;
76167;SDS011;64927;48.214;16.378;2022-12-15T07:09:49;97.90;;;57.65;;
76167;SDS011;64927;48.214;16.378;2022-12-15T07:12:17;102.03;;;56.92;;
76167;SDS011;64927;48.214;16.378;2022-12-15T07:14:43;93.50;;;50.85;;
76167;SDS011;64927;48.214;16.378;2022-12-15T07:17:08;83.85;;;50.35;;
76167;SDS011;64927;48.214;16.378;2022-12-15T07:19:35;85.30;;;48.85;;
76167;SDS011;64927;48.214;16.378;2022-12-15T07:22:03;90.50;;;49.28;;
76167;SDS011;64927;48.214;16.378;2022-12-15T07:24:29;93.78;;;48.92;;
76167;SDS011;64927;48.214;16.378;2022-12-15T07:26:54;82.50;;;48.20;;
76167;SDS011;64927;48.214;16.378;2022-12-15T07:29:22;81.28;;;47.35;;
76167;SDS011;64927;48.214;16.378;2022-12-15T07:31:48;95.43;;;50.75;;
76167;SDS011;64927;48.214;16.378;2022-12-15T07:34:14;83.53;;;46.95;;
76167;SDS011;64927;48.214;16.378;2022-12-15T07:36:40;79.05;;;48.13;;
76167;SDS011;64927;48.214;16.378;2022-12-15T07:39:05;83.15;;;46.75;;
76167;SDS011;64927;48.214;16.378;2022-12-15T07:41:31;78.05;;;47.15;;
76167;SDS011;64927;48.214;16.378;2022-12-15T07:43:57;81.35;;;47.33;;
76167;SDS011;64927;48.214;16.378;2022-12-15T07:46:26;76.90;;;45.28;;
76167;SDS011;64927;48.214;16.378;2022-12-15T07:48:52;81.28;;;47.30;;
76167;SDS011;64927;48.214;16.378;2022-12-15T07:51:18;73.80;;;43.55;;
76167;SDS011;64927;48.214;16.378;2022-12-15T07:53:48;74.18;;;45.45;;
76167;SDS011;64927;48.214;16.378;2022-12-15T07:56:14;76.35;;;46.53;;
76167;SDS011;64927;48.214;16.378;2022-12-15T07:58:43;78.40;;;46.15;;
76167;SDS011;64927;48.214;16.378;2022-12-15T08:01:09;82.57;;;46.58;;
76167;SDS011;64927;48.214;16.378;2022-12-15T08:03:36;81.68;;;47.15;;
76167;SDS011;64927;48.214;16.378;2022-12-15T08:06:06;81.95;;;49.47;;
76167;SDS011;64927;48.214;16.378;2022-12-15T08:08:36;78.88;;;46.67;;
76167;SDS011;64927;48.214;16.378;2022-12-15T08:11:03;81.35;;;49.47;;
76167;SDS011;64927;48.214;16.378;2022-12-15T08:13:29;80.82;;;48.83;;
76167;SDS011;64927;48.214;16.378;2022-12-15T08:15:55;76.32;;;47.30;;
76167;SDS011;64927;48.214;16.378;2022-12-15T08:18:20;81.43;;;49.03;;
76167;SDS011;64927;48.214;16.378;2022-12-15T08:20:48;80.43;;;47.92;;
76167;SDS011;64927;48.214;16.378;2022-12-15T08:23:14;84.10;;;48.90;;
76167;SDS011;64927;48.214;16.378;2022-12-15T08:25:42;82.43;;;49.08;;
76167;SDS011;64927;48.214;16.378;2022-12-15T08:28:07;89.60;;;52.90;;
76167;SDS011;64927;48.214;16.378;2022-12-15T08:30:36;81.30;;;48.72;;
76167;SDS011;64927;48.214;16.378;2022-12-15T08:33:04;76.60;;;47.85;;
76167;SDS011;64927;48.214;16.378;2022-12-15T08:35:30;80.18;;;47.42;;
76167;SDS011;64927;48.214;16.378;2022-12-15T08:37:55;88.85;;;49.88;;
76167;SDS011;64927;48.214;16.378;2022-12-15T08:40:21;85.43;;;48.92;;
76167;SDS011;64927;48.214;16.378;2022-12-15T08:42:47;85.75;;;50.85;;
76167;SDS011;64927;48.214;16.378;2022-12-15T08:45:14;77.55;;;47.20;;
76167;SDS011;64927;48.214;16.378;2022-12-15T08:47:40;84.22;;;51.35;;
76167;SDS011;64927;48.214;16.378;2022-12-15T08:50:06;84.85;;;49.85;;
76167;SDS011;64927;48.214;16.378;2022-12-15T08:52:32;79.40;;;48.85;;
76167;SDS011;64927;48.214;16.378;2022-12-15T08:54:58;85.03;;;49.38;;
76167;SDS011;64927;48.214;16.378;2022-12-15T08:57:24;80.28;;;48.47;;
76167;SDS011;64927;48.214;16.378;2022-12-15T08:59:50;81.70;;;48.60;;
76167;SDS011;64927;48.214;16.378;2022-12-15T09:02:15;82.78;;;50.88;;
76167;SDS011;64927;48.214;16.378;2022-12-15T09:04:41;81.55;;;46.58;;
76167;SDS011;64927;48.214;16.378;2022-12-15T09:07:08;82.25;;;49.95;;
76167;SDS011;64927;48.214;16.378;2022-12-15T09:09:36;87.90;;;51.97;;
76167;SDS011;64927;48.214;16.378;2022-12-15T09:12:02;93.95;;;50.08;;
76167;SDS011;64927;48.214;16.378;2022-12-15T09:14:27;76.60;;;46.58;;
76167;SDS011;64927;48.214;16.378;2022-12-15T09:16:56;76.57;;;47.15;;
76167;SDS011;64927;48.214;16.378;2022-12-15T09:19:21;82.32;;;48.00;;
76167;SDS011;64927;48.214;16.378;2022-12-15T09:21:47;91.10;;;47.80;;
76167;SDS011;64927;48.214;16.378;2022-12-15T09:24:13;81.65;;;48.75;;
76167;SDS011;64927;48.214;16.378;2022-12-15T09:26:39;82.18;;;50.22;;
76167;SDS011;64927;48.214;16.378;2022-12-15T09:29:06;77.15;;;48.25;;
76167;SDS011;64927;48.214;16.378;2022-12-15T09:31:36;85.05;;;51.63;;
76167;SDS011;64927;48.214;16.378;2022-12-15T09:34:04;94.45;;;50.72;;
76167;SDS011;64927;48.214;16.378;2022-12-15T09:36:32;82.20;;;49.70;;
76167;SDS011;64927;48.214;16.378;2022-12-15T09:38:58;83.97;;;51.35;;
76167;SDS011;64927;48.214;16.378;2022-12-15T09:41:26;85.05;;;49.97;;
76167;SDS011;64927;48.214;16.378;2022-12-15T09:44:13;93.30;;;52.78;;
76167;SDS011;64927;48.214;16.378;2022-12-15T09:46:47;84.70;;;52.58;;
76167;SDS011;64927;48.214;16.378;2022-12-15T09:55:16;82.97;;;48.58;;
76167;SDS011;64927;48.214;16.378;2022-12-15T09:58:32;83.13;;;50.28;;
76167;SDS011;64927;48.214;16.378;2022-12-15T10:00:48;81.38;;;49.75;;
76167;SDS011;64927;48.214;16.378;2022-12-15T10:06:10;84.50;;;51.30;;
76167;SDS011;64927;48.214;16.378;2022-12-15T10:08:43;85.18;;;50.97;;
76167;SDS011;64927;48.214;16.378;2022-12-15T10:11:19;80.15;;;46.47;;
76167;SDS011;64927;48.214;16.378;2022-12-15T10:13:53;81.75;;;51.85;;
76167;SDS011;64927;48.214;16.378;2022-12-15T10:19:13;86.30;;;53.53;;
76167;SDS011;64927;48.214;16.378;2022-12-15T10:21:58;86.32;;;51.05;;
76167;SDS011;64927;48.214;16.378;2022-12-15T10:24:24;85.93;;;52.33;;
76167;SDS011;64927;48.214;16.378;2022-12-15T10:32:16;83.07;;;48.13;;
76167;SDS011;64927;48.214;16.378;2022-12-15T10:34:43;80.13;;;47.67;;
76167;SDS011;64927;48.214;16.378;2022-12-15T10:37:16;77.53;;;48.88;;
76167;SDS011;64927;48.214;16.378;2022-12-15T10:39:45;81.80;;;50.50;;
76167;SDS011;64927;48.214;16.378;2022-12-15T10:42:14;86.38;;;51.42;;
76167;SDS011;64927;48.214;16.378;2022-12-15T10:44:42;87.13;;;49.80;;
76167;SDS011;64927;48.214;16.378;2022-12-15T10:47:16;84.63;;;51.67;;
76167;SDS011;64927;48.214;16.378;2022-12-15T10:49:44;83.15;;;50.80;;
76167;SDS011;64927;48.214;16.378;2022-12-15T10:52:33;85.75;;;53.45;;
76167;SDS011;64927;48.214;16.378;2022-12-15T10:54:58;83.22;;;52.33;;
76167;SDS011;64927;48.214;16.378;2022-12-15T11:00:00;92.05;;;53.97;;
76167;SDS011;64927;48.214;16.378;2022-12-15T11:02:42;90.82;;;51.30;;
76167;SDS011;64927;48.214;16.378;2022-12-15T11:07:41;84.97;;;49.22;;
76167;SDS011;64927;48.214;16.378;2022-12-15T11:15:37;84.10;;;49.50;;
76167;SDS011;64927;48.214;16.378;2022-12-15T11:20:37;78.25;;;47.90;;
76167;SDS011;64927;48.214;16.378;2022-12-15T11:23:12;75.28;;;49.08;;
76167;SDS011;64927;48.214;16.378;2022-12-15T11:26:01;78.03;;;45.65;;
76167;SDS011;64927;48.214;16.378;2022-12-15T11:28:45;74.20;;;45.50;;
76167;SDS011;64927;48.214;16.378;2022-12-15T11:31:20;80.80;;;48.05;;
76167;SDS011;64927;48.214;16.378;2022-12-15T11:34:11;76.43;;;47.33;;
76167;SDS011;64927;48.214;16.378;2022-12-15T11:42:27;80.80;;;49.38;;
76167;SDS011;64927;48.214;16.378;2022-12-15T11:45:21;80.65;;;47.22;;
76167;SDS011;64927;48.214;16.378;2022-12-15T11:48:17;84.80;;;50.58;;
76167;SDS011;64927;48.214;16.378;2022-12-15T12:04:29;85.70;;;51.83;;
76167;SDS011;64927;48.214;16.378;2022-12-15T12:15:41;95.85;;;56.58;;
76167;SDS011;64927;48.214;16.378;2022-12-15T12:20:44;90.55;;;53.92;;
76167;SDS011;64927;48.214;16.378;2022-12-15T12:23:20;95.07;;;56.17;;
76167;SDS011;64927;48.214;16.378;2022-12-15T12:26:39;103.95;;;56.80;;
76167;SDS011;64927;48.214;16.378;2022-12-15T12:40:01;84.35;;;50.67;;
76167;SDS011;64927;48.214;16.378;2022-12-15T12:42:39;82.28;;;50.22;;
76167;SDS011;64927;48.214;16.378;2022-12-15T12:45:12;86.15;;;51.40;;
76167;SDS011;64927;48.214;16.378;2022-12-15T12:47:40;87.90;;;52.22;;
76167;SDS011;64927;48.214;16.378;2022-12-15T12:50:14;92.55;;;54.67;;
76167;SDS011;64927;48.214;16.378;2022-12-15T12:52:58;89.40;;;53.95;;
76167;SDS011;64927;48.214;16.378;2022-12-15T12:55:28;102.32;;;58.60;;
76167;SDS011;64927;48.214;16.378;2022-12-15T13:01:23;101.55;;;57.65;;
76167;SDS011;64927;48.214;16.378;2022-12-15T13:10:00;95.30;;;56.80;;
76167;SDS011;64927;48.214;16.378;2022-12-15T13:12:37;98.78;;;59.53;;
76167;SDS011;64927;48.214;16.378;2022-12-15T13:15:56;106.53;;;58.40;;
76167;SDS011;64927;48.214;16.378;2022-12-15T13:18:06;112.00;;;61.50;;
76167;SDS011;64927;48.214;16.378;2022-12-15T13:20:47;106.03;;;57.65;;
76167;SDS011;64927;48.214;16.378;2022-12-15T13:28:26;110.28;;;62.33;;
76167;SDS011;64927;48.214;16.378;2022-12-15T13:39:04;105.78;;;59.72;;
76167;SDS011;64927;48.214;16.378;2022-12-15T13:46:50;114.63;;;65.53;;
76167;SDS011;64927;48.214;16.378;2022-12-15T13:51:57;124.57;;;69.15;;
76167;SDS011;64927;48.214;16.378;2022-12-15T13:54:30;115.80;;;66.90;;
76167;SDS011;64927;48.214;16.378;2022-12-15T13:57:09;116.65;;;63.08;;
76167;SDS011;64927;48.214;16.378;2022-12-15T13:59:46;114.88;;;62.90;;
76167;SDS011;64927;48.214;16.378;2022-12-15T14:05:16;114.18;;;65.07;;
76167;SDS011;64927;48.214;16.378;2022-12-15T14:07:56;119.85;;;66.78;;
76167;SDS011;64927;48.214;16.378;2022-12-15T14:13:12;118.68;;;66.75;;
76167;SDS011;64927;48.214;16.378;2022-12-15T14:15:44;119.07;;;67.57;;
76167;SDS011;64927;48.214;16.378;2022-12-15T14:18:21;120.13;;;63.78;;
76167;SDS011;64927;48.214;16.378;2022-12-15T14:20:52;123.28;;;66.20;;
76167;SDS011;64927;48.214;16.378;2022-12-15T14:23:23;121.35;;;61.40;;
76167;SDS011;64927;48.214;16.378;2022-12-15T14:26:09;120.07;;;64.18;;
76167;SDS011;64927;48.214;16.378;2022-12-15T14:28:37;114.70;;;64.68;;
76167;SDS011;64927;48.214;16.378;2022-12-15T14:31:06;124.47;;;68.07;;
76167;SDS011;64927;48.214;16.378;2022-12-15T14:33:39;126.75;;;67.72;;
76167;SDS011;64927;48.214;16.378;2022-12-15T14:36:07;116.30;;;65.78;;
76167;SDS011;64927;48.214;16.378;2022-12-15T14:41:21;122.38;;;66.35;;
76167;SDS011;64927;48.214;16.378;2022-12-15T14:43:54;145.25;;;75.00;;
76167;SDS011;64927;48.214;16.378;2022-12-15T14:46:24;116.43;;;62.25;;
76167;SDS011;64927;48.214;16.378;2022-12-15T14:48:59;118.78;;;64.28;;
76167;SDS011;64927;48.214;16.378;2022-12-15T14:51:30;113.13;;;59.28;;
76167;SDS011;64927;48.214;16.378;2022-12-15T14:54:02;110.80;;;61.47;;
76167;SDS011;64927;48.214;16.378;2022-12-15T14:56:28;113.80;;;60.67;;
76167;SDS011;64927;48.214;16.378;2022-12-15T15:01:40;110.47;;;61.72;;
76167;SDS011;64927;48.214;16.378;2022-12-15T15:06:57;112.18;;;61.08;;
76167;SDS011;64927;48.214;16.378;2022-12-15T15:09:28;108.43;;;58.22;;
76167;SDS011;64927;48.214;16.378;2022-12-15T15:12:03;105.63;;;54.55;;
76167;SDS011;64927;48.214;16.378;2022-12-15T15:14:41;114.57;;;59.45;;
76167;SDS011;64927;48.214;16.378;2022-12-15T15:19:45;116.65;;;61.45;;
76167;SDS011;64927;48.214;16.378;2022-12-15T15:30:58;117.13;;;62.67;;
76167;SDS011;64927;48.214;16.378;2022-12-15T15:33:33;126.57;;;65.32;;
76167;SDS011;64927;48.214;16.378;2022-12-15T15:36:08;118.20;;;59.42;;
76167;SDS011;64927;48.214;16.378;2022-12-15T15:38:37;118.75;;;61.58;;
76167;SDS011;64927;48.214;16.378;2022-12-15T15:41:14;120.07;;;63.25;;
76167;SDS011;64927;48.214;16.378;2022-12-15T15:43:48;133.50;;;67.43;;
76167;SDS011;64927;48.214;16.378;2022-12-15T15:46:15;134.45;;;65.47;;
76167;SDS011;64927;48.214;16.378;2022-12-15T15:48:50;123.03;;;63.65;;
76167;SDS011;64927;48.214;16.378;2022-12-15T15:51:25;142.60;;;66.35;;
76167;SDS011;64927;48.214;16.378;2022-12-15T15:53:52;131.07;;;64.97;;
76167;SDS011;64927;48.214;16.378;2022-12-15T15:56:30;130.60;;;64.18;;
76167;SDS011;64927;48.214;16.378;2022-12-15T15:58:56;145.55;;;69.90;;
76167;SDS011;64927;48.214;16.378;2022-12-15T16:01:26;136.55;;;67.95;;
76167;SDS011;64927;48.214;16.378;2022-12-15T16:03:52;136.85;;;65.10;;
76167;SDS011;64927;48.214;16.378;2022-12-15T16:06:18;142.13;;;66.30;;
76167;SDS011;64927;48.214;16.378;2022-12-15T16:08:52;148.65;;;69.38;;
76167;SDS011;64927;48.214;16.378;2022-12-15T16:11:20;158.00;;;73.40;;
76167;SDS011;64927;48.214;16.378;2022-12-15T16:13:48;162.77;;;72.00;;
76167;SDS011;64927;48.214;16.378;2022-12-15T16:16:17;164.05;;;72.82;;
76167;SDS011;64927;48.214;16.378;2022-12-15T16:18:45;158.90;;;73.15;;
76167;SDS011;64927;48.214;16.378;2022-12-15T16:21:14;154.38;;;69.13;;
76167;SDS011;64927;48.214;16.378;2022-12-15T16:23:42;174.52;;;74.45;;
76167;SDS011;64927;48.214;16.378;2022-12-15T16:26:12;161.40;;;72.70;;
76167;SDS011;64927;48.214;16.378;2022-12-15T16:28:40;171.35;;;76.40;;
76167;SDS011;64927;48.214;16.378;2022-12-15T16:31:09;182.85;;;76.53;;
76167;SDS011;64927;48.214;16.378;2022-12-15T16:33:39;177.73;;;79.90;;
76167;SDS011;64927;48.214;16.378;2022-12-15T16:36:12;178.98;;;76.28;;
76167;SDS011;64927;48.214;16.378;2022-12-15T16:38:41;182.68;;;78.07;;
76167;SDS011;64927;48.214;16.378;2022-12-15T16:41:09;176.65;;;77.40;;
76167;SDS011;64927;48.214;16.378;2022-12-15T16:43:38;179.85;;;72.85;;
76167;SDS011;64927;48.214;16.378;2022-12-15T16:46:04;185.10;;;75.28;;
76167;SDS011;64927;48.214;16.378;2022-12-15T16:48:30;179.43;;;77.25;;
76167;SDS011;64927;48.214;16.378;2022-12-15T16:50:56;187.90;;;80.47;;
76167;SDS011;64927;48.214;16.378;2022-12-15T16:53:29;178.85;;;77.38;;
76167;SDS011;64927;48.214;16.378;2022-12-15T16:56:00;181.57;;;79.43;;
76167;SDS011;64927;48.214;16.378;2022-12-15T16:58:29;201.95;;;80.60;;
76167;SDS011;64927;48.214;16.378;2022-12-15T17:00:58;189.95;;;79.07;;